Skip Navigation Links Skip Navigation Links

Current Weather

General Mitchell International, Milwaukee

For information only: do not use for flight planning or navigation.
Latest weather
Observation time Friday, December 3, 2021 3:52 AM CST
Local time Friday, December 3, 2021 4:18 AM CST
Flight conditions Marginal Visual Meteorological Conditions
Winds
Wind speed calm
Visibility 10 mi.
Present weather light rain
Sky condition
Ceiling 1,100 ft. broken clouds
Cloud layer broken clouds 1,100 ft.
Cloud layer overcast 2,000 ft.
Temperature 39°F
Dewpoint 33°F
Altimeter 30.06 in.Hg
Precipitation
Precipitation last hour 0.07 in.
Derived measurements
Relative humidity 79%
Wind chill 39°F
Density altitude -685 ft.
Sea-level pressure 30.08 in.Hg
Remarks
Automated weather observing station with precipitation discriminator.
METAR KMKE 030952Z 00000KT 10SM -RA BKN011 OVC020 04/01 A3006 RMK AO2 SLP185 P0007 T00390006

Settings

Location code

InnerDrive.Weather 4.0.6770.0 Release CLR 4.0.30319.42000
Copyright ©2018 Inner Drive Technology. All rights reserved. Portions Copyright ©1986-2018 David Braverman.

Find weather

Site navigation


Skip Navigation Links

Place info

Page info

PayPal - The safer, easier way to pay online!

Return home.

Copyright ©2021 Inner Drive Technology. Purveyors of fine, hand-crafted computer software. Page printed 2021-12-03T10:18:56 UTC.